Time;durP1;ratioP1;P1;durP2;ratioP2;P2;SDS_P1;SDS_P2;PMS_P1;PMS_P2;Temp;Humidity;BMP_temperature;BMP_pressure;BME280_temperature;BME280_humidity;BME280_pressure;Samples;Min_cycle;Max_cycle;Signal;HPM_P1;HPM_P2
2021/01/07 00:00:06;;;;;;;5.60;2.85;;;3.40;99.90;;;;;;4871554;29;20026;-83
2021/01/07 00:02:32;;;;;;;7.80;3.25;;;3.40;99.90;;;;;;4871107;29;20061;-83
2021/01/07 00:04:58;;;;;;;5.00;2.92;;;3.40;99.90;;;;;;4870507;29;20046;-85
2021/01/07 00:07:24;;;;;;;5.60;2.90;;;3.40;99.90;;;;;;4869635;29;20030;-83
2021/01/07 00:09:49;;;;;;;5.07;2.35;;;3.30;99.90;;;;;;4884537;29;20030;-83
2021/01/07 00:12:15;;;;;;;9.82;3.10;;;3.40;99.90;;;;;;4870303;29;20030;-84
2021/01/07 00:14:41;;;;;;;5.55;2.75;;;3.40;99.90;;;;;;4871048;29;20038;-84
2021/01/07 00:17:08;;;;;;;5.32;3.10;;;3.40;99.90;;;;;;4871033;29;20045;-84
2021/01/07 00:19:33;;;;;;;5.07;2.92;;;3.40;99.90;;;;;;4886634;29;20065;-84
2021/01/07 00:21:59;;;;;;;5.88;2.50;;;3.40;99.90;;;;;;4869268;29;20070;-84
2021/01/07 00:24:25;;;;;;;4.40;2.53;;;3.30;99.90;;;;;;4869459;29;20030;-83
2021/01/07 00:26:51;;;;;;;12.05;3.95;;;3.30;99.90;;;;;;4869115;29;20037;-84
2021/01/07 00:29:16;;;;;;;3.25;2.58;;;3.30;99.90;;;;;;4868623;29;20033;-84
2021/01/07 00:31:42;;;;;;;6.70;2.88;;;3.30;99.90;;;;;;4883299;29;20036;-83
2021/01/07 00:34:08;;;;;;;8.25;2.40;;;3.30;99.90;;;;;;4869503;29;20021;-82
2021/01/07 00:36:34;;;;;;;10.90;3.15;;;3.30;99.90;;;;;;4862812;29;20101;-81
2021/01/07 00:38:59;;;;;;;5.47;2.00;;;3.20;99.90;;;;;;4869191;29;20041;-83
2021/01/07 00:41:35;;;;;;;3.67;1.60;;;3.10;99.90;;;;;;4869887;29;20022;-81
2021/01/07 00:44:01;;;;;;;2.67;2.45;;;3.00;99.90;;;;;;4877595;29;20045;-82
2021/01/07 00:46:27;;;;;;;4.35;2.00;;;3.00;99.90;;;;;;4878298;29;20025;-83
2021/01/07 00:48:53;;;;;;;2.10;1.52;;;3.10;99.90;;;;;;4870557;29;20037;-83
2021/01/07 00:51:19;;;;;;;4.05;2.00;;;3.10;99.90;;;;;;4887744;29;20026;-83
2021/01/07 00:53:45;;;;;;;6.75;2.03;;;3.00;99.90;;;;;;4886235;29;20082;-83
2021/01/07 00:56:13;;;;;;;9.65;1.65;;;3.00;99.90;;;;;;4873846;29;20062;-84
2021/01/07 00:58:39;;;;;;;2.85;1.85;;;3.00;99.90;;;;;;4877127;29;20101;-83
2021/01/07 01:01:05;;;;;;;2.65;1.70;;;3.00;99.90;;;;;;4875767;29;20033;-83
2021/01/07 01:03:34;;;;;;;2.10;1.70;;;2.90;99.90;;;;;;4874452;29;20056;-83
2021/01/07 01:06:00;;;;;;;3.97;2.00;;;2.90;99.90;;;;;;4873932;29;20034;-81
2021/01/07 01:08:25;;;;;;;4.55;1.50;;;2.90;99.90;;;;;;4873409;29;20057;-83
2021/01/07 01:10:51;;;;;;;3.83;1.85;;;2.90;99.90;;;;;;4873720;29;20105;-83
2021/01/07 01:13:17;;;;;;;4.22;2.08;;;2.90;99.90;;;;;;4889167;29;20045;-84
2021/01/07 01:15:43;;;;;;;3.45;2.10;;;2.90;99.90;;;;;;4892643;29;20033;-83
2021/01/07 01:18:10;;;;;;;2.78;1.90;;;2.90;99.90;;;;;;4874884;29;20049;-83
2021/01/07 01:20:56;;;;;;;1.95;1.45;;;2.90;99.90;;;;;;4873293;29;20030;-84
2021/01/07 01:24:21;;;;;;;;;;;;;;;;;;;;;
2021/01/07 01:26:52;;;;;;;5.72;2.40;;;2.70;99.90;;;;;;4864352;29;20089;-82
2021/01/07 01:29:18;;;;;;;3.10;2.25;;;2.70;99.90;;;;;;4873147;29;20030;-82
2021/01/07 01:31:44;;;;;;;5.13;2.13;;;2.70;99.90;;;;;;4888031;29;20036;-80
2021/01/07 01:34:13;;;;;;;3.45;2.30;;;2.70;99.90;;;;;;4871546;29;20029;-81
2021/01/07 01:36:39;;;;;;;3.55;2.22;;;2.60;99.90;;;;;;4866562;29;20042;-84
2021/01/07 01:39:05;;;;;;;1.85;1.75;;;2.60;99.90;;;;;;4872481;29;20032;-83
2021/01/07 01:41:31;;;;;;;4.13;2.15;;;2.60;99.90;;;;;;4876006;29;20037;-82
2021/01/07 01:43:59;;;;;;;4.40;2.05;;;2.60;99.90;;;;;;4869896;29;20053;-83
2021/01/07 01:46:24;;;;;;;;;;;2.60;99.90;;;;;;4857828;29;20082;-83
2021/01/07 01:48:50;;;;;;;3.42;2.13;;;2.60;99.90;;;;;;4858241;29;19912;-83
2021/01/07 01:51:18;;;;;;;3.10;1.80;;;2.60;99.90;;;;;;4867640;29;20033;-82
2021/01/07 01:53:45;;;;;;;2.60;1.73;;;2.70;99.90;;;;;;4853389;29;20394;-82
2021/01/07 01:56:11;;;;;;;4.05;1.77;;;2.70;99.90;;;;;;4869804;29;20402;-82
2021/01/07 01:58:40;;;;;;;3.00;1.88;;;2.70;99.90;;;;;;4870196;29;20093;-81
2021/01/07 02:01:06;;;;;;;2.70;2.00;;;2.70;99.90;;;;;;4854026;29;20092;-82
2021/01/07 02:03:32;;;;;;;4.32;2.53;;;2.60;99.90;;;;;;4856303;29;20045;-82
2021/01/07 02:06:02;;;;;;;4.22;1.90;;;2.70;99.90;;;;;;4869734;29;20398;-82
2021/01/07 02:08:29;;;;;;;4.63;2.20;;;2.70;99.90;;;;;;4854226;29;20025;-81
2021/01/07 02:10:58;;;;;;;2.97;2.10;;;2.70;99.90;;;;;;4852529;29;20034;-81
2021/01/07 02:13:26;;;;;;;4.22;1.98;;;2.80;99.90;;;;;;4870133;29;20037;-81
2021/01/07 02:15:52;;;;;;;3.30;2.00;;;2.70;99.90;;;;;;4870382;29;20037;-81
2021/01/07 02:18:18;;;;;;;3.65;2.15;;;2.70;99.90;;;;;;4853421;29;20372;-81
2021/01/07 02:20:47;;;;;;;3.92;2.35;;;2.70;99.90;;;;;;4853554;29;20057;-81
2021/01/07 02:23:13;;;;;;;6.55;2.35;;;2.70;99.90;;;;;;4853534;29;20053;-82
2021/01/07 02:25:39;;;;;;;6.63;2.55;;;2.70;99.90;;;;;;4853619;29;20064;-82
2021/01/07 02:28:07;;;;;;;2.53;2.33;;;2.70;99.90;;;;;;4853878;29;20026;-83
2021/01/07 02:30:33;;;;;;;4.78;2.45;;;2.80;99.90;;;;;;4854139;29;20026;-80
2021/01/07 02:32:58;;;;;;;3.05;1.92;;;2.90;99.90;;;;;;4870623;29;20036;-82
2021/01/07 02:35:27;;;;;;;3.38;1.85;;;2.90;99.90;;;;;;4853859;29;20030;-81
2021/01/07 02:37:53;;;;;;;5.82;2.17;;;3.00;99.90;;;;;;4869655;29;20038;-81
2021/01/07 02:40:19;;;;;;;2.67;1.80;;;3.00;99.90;;;;;;4853211;29;20435;-82
2021/01/07 02:42:45;;;;;;;4.40;1.23;;;3.10;99.90;;;;;;4852995;29;20040;-81
2021/01/07 02:45:21;;;;;;;4.13;1.45;;;3.10;99.90;;;;;;4852643;29;20041;-82
2021/01/07 02:47:54;;;;;;;5.55;1.60;;;3.10;99.90;;;;;;4853045;29;20041;-82
2021/01/07 02:50:22;;;;;;;1.40;1.30;;;3.10;99.90;;;;;;4852611;29;20025;-82
2021/01/07 02:52:48;;;;;;;;;;;3.10;99.90;;;;;;4852763;29;20041;-82
2021/01/07 02:55:14;;;;;;;2.33;1.60;;;3.10;99.90;;;;;;4863936;29;19934;-82
2021/01/07 02:57:39;;;;;;;3.22;1.27;;;3.20;99.90;;;;;;4852937;29;20057;-82
2021/01/07 03:00:06;;;;;;;1.63;1.40;;;3.20;99.90;;;;;;4852893;29;20394;-83
2021/01/07 03:02:32;;;;;;;2.85;1.52;;;3.20;99.90;;;;;;4869702;29;20033;-83
2021/01/07 03:04:58;;;;;;;6.35;1.95;;;3.20;99.90;;;;;;4853830;29;20427;-81
2021/01/07 03:07:24;;;;;;;4.15;1.38;;;3.20;99.90;;;;;;4855479;29;20025;-82
2021/01/07 03:09:49;;;;;;;1.98;1.52;;;3.20;99.90;;;;;;4852046;29;20030;-82
2021/01/07 03:12:19;;;;;;;2.80;1.50;;;3.10;99.90;;;;;;4854713;29;20089;-83
2021/01/07 03:14:46;;;;;;;4.72;1.40;;;3.20;99.90;;;;;;4854810;29;20101;-83
2021/01/07 03:17:12;;;;;;;4.25;1.50;;;3.10;99.90;;;;;;4857342;29;20048;-81
2021/01/07 03:19:39;;;;;;;4.95;1.85;;;3.10;99.90;;;;;;4855956;29;20455;-83
2021/01/07 03:22:05;;;;;;;3.03;1.50;;;3.20;99.90;;;;;;4871269;29;20040;-82
2021/01/07 03:24:36;;;;;;;4.38;1.63;;;3.20;99.90;;;;;;4876758;29;20033;-83
2021/01/07 03:27:02;;;;;;;3.92;1.55;;;3.20;99.90;;;;;;4869217;29;20040;-82
2021/01/07 03:29:28;;;;;;;3.22;1.48;;;3.10;99.90;;;;;;4853512;29;20029;-82
2021/01/07 03:31:55;;;;;;;4.32;1.10;;;3.10;99.90;;;;;;4874503;29;20387;-83
2021/01/07 03:34:21;;;;;;;5.78;1.75;;;3.10;99.90;;;;;;4857220;29;20033;-82
2021/01/07 03:36:49;;;;;;;3.40;2.08;;;3.10;99.90;;;;;;4868008;29;20049;-83
2021/01/07 03:39:37;;;;;;;;;;;3.10;99.90;;;;;;4856602;29;20034;-83
2021/01/07 03:42:08;;;;;;;1.80;1.20;;;3.20;99.90;;;;;;4848239;29;19912;-82
2021/01/07 03:44:37;;;;;;;1.90;1.50;;;3.20;99.90;;;;;;4868920;29;20108;-83
2021/01/07 03:47:03;;;;;;;1.52;1.20;;;3.20;99.90;;;;;;4869410;29;20032;-83
2021/01/07 03:49:28;;;;;;;1.98;1.50;;;3.10;99.90;;;;;;4853260;29;20418;-83
2021/01/07 03:51:54;;;;;;;4.07;1.20;;;3.10;99.90;;;;;;4854949;29;20017;-83
2021/01/07 03:54:20;;;;;;;1.27;1.10;;;3.10;99.90;;;;;;4867438;29;20048;-83
2021/01/07 03:56:46;;;;;;;2.85;1.92;;;3.20;99.90;;;;;;4853880;29;20093;-82
2021/01/07 03:59:12;;;;;;;3.15;1.42;;;3.20;99.90;;;;;;4870822;29;20061;-83
2021/01/07 04:01:38;;;;;;;1.55;1.40;;;3.20;99.90;;;;;;4857564;29;20070;-83
2021/01/07 04:04:08;;;;;;;3.03;1.40;;;3.20;99.90;;;;;;4854629;29;20120;-83
2021/01/07 04:06:44;;;;;;;1.25;1.15;;;3.20;99.90;;;;;;4868783;29;20026;-82
2021/01/07 04:09:12;;;;;;;2.22;1.67;;;3.20;99.90;;;;;;4870525;29;20111;-82
2021/01/07 04:11:38;;;;;;;2.15;1.35;;;3.10;99.90;;;;;;4867798;29;20037;-83
2021/01/07 04:14:07;;;;;;;3.70;1.60;;;3.10;99.90;;;;;;4869783;29;20074;-82
2021/01/07 04:16:41;;;;;;;2.47;1.55;;;3.00;99.90;;;;;;4857166;29;20038;-82
2021/01/07 04:19:11;;;;;;;1.73;1.08;;;3.00;99.90;;;;;;4853657;29;20169;-83
2021/01/07 04:21:45;;;;;;;3.53;1.10;;;3.00;99.90;;;;;;4868831;29;20038;-83
2021/01/07 04:24:13;;;;;;;2.22;1.58;;;3.00;99.90;;;;;;4872447;29;20116;-83
2021/01/07 04:26:42;;;;;;;1.48;1.33;;;3.00;99.90;;;;;;4865819;29;20094;-81
2021/01/07 04:29:09;;;;;;;3.95;1.30;;;3.00;99.90;;;;;;4872381;29;20028;-82
2021/01/07 04:31:38;;;;;;;2.58;1.40;;;3.00;99.90;;;;;;4861020;29;20029;-82
2021/01/07 04:34:05;;;;;;;4.57;1.38;;;3.10;99.90;;;;;;4873313;29;20391;-82
2021/01/07 04:36:37;;;;;;;2.40;1.50;;;3.10;99.90;;;;;;4855008;29;20074;-82
2021/01/07 04:39:07;;;;;;;2.80;1.50;;;3.20;99.90;;;;;;4859795;29;20387;-82
2021/01/07 04:41:35;;;;;;;2.03;1.42;;;3.20;99.90;;;;;;4840989;29;20106;-82
2021/01/07 04:44:02;;;;;;;2.75;1.90;;;3.30;99.90;;;;;;4864338;29;20045;-81
2021/01/07 04:46:28;;;;;;;2.33;1.40;;;3.30;99.90;;;;;;4870965;29;20520;-81
2021/01/07 04:49:01;;;;;;;1.67;1.58;;;3.30;99.90;;;;;;4873581;29;20037;-82
2021/01/07 04:51:30;;;;;;;4.05;1.63;;;3.40;99.90;;;;;;4877491;29;20089;-81
2021/01/07 04:54:04;;;;;;;3.90;2.75;;;3.40;99.90;;;;;;4876428;29;20040;-81
2021/01/07 04:56:37;;;;;;;5.97;1.83;;;3.50;99.90;;;;;;4870990;29;20064;-82
2021/01/07 04:59:08;;;;;;;2.38;1.98;;;3.50;99.90;;;;;;4869957;29;20093;-81
2021/01/07 05:01:37;;;;;;;3.38;2.05;;;3.60;99.90;;;;;;4879103;29;20033;-82
2021/01/07 05:04:05;;;;;;;2.28;1.45;;;3.60;99.90;;;;;;4871945;29;20033;-81
2021/01/07 05:06:44;;;;;;;;;;;;;;;;;;;;;
2021/01/07 05:09:12;;;;;;;2.88;1.65;;;3.40;99.90;;;;;;4872054;29;20109;-81
2021/01/07 05:11:38;;;;;;;4.70;1.80;;;3.50;99.90;;;;;;4871604;29;20037;-82
2021/01/07 05:14:08;;;;;;;3.55;2.15;;;3.40;99.90;;;;;;4871564;29;20097;-82
2021/01/07 05:16:34;;;;;;;2.05;1.40;;;3.50;99.90;;;;;;4870192;29;20054;-81
2021/01/07 05:19:06;;;;;;;1.73;1.52;;;3.40;99.90;;;;;;4870534;29;20033;-81
2021/01/07 05:21:34;;;;;;;3.10;1.73;;;3.40;99.90;;;;;;4880508;29;20115;-82
2021/01/07 05:24:02;;;;;;;;;;;3.40;99.90;;;;;;4872752;29;20037;-82
2021/01/07 05:26:31;;;;;;;2.85;1.30;;;3.50;99.90;;;;;;4879085;29;19911;-82
2021/01/07 05:28:58;;;;;;;2.20;1.75;;;3.50;99.90;;;;;;4882674;29;20033;-82
2021/01/07 05:31:29;;;;;;;2.70;1.35;;;3.50;99.90;;;;;;4881981;29;20025;-81
2021/01/07 05:34:00;;;;;;;3.70;1.80;;;3.50;99.90;;;;;;4871187;29;20062;-82
2021/01/07 05:36:28;;;;;;;1.20;1.10;;;3.50;99.90;;;;;;4868299;29;20097;-81
2021/01/07 05:38:57;;;;;;;3.17;1.65;;;3.40;99.90;;;;;;4868356;29;20033;-81
2021/01/07 05:41:24;;;;;;;1.85;1.23;;;3.40;99.90;;;;;;4869481;29;20057;-82
2021/01/07 05:44:03;;;;;;;3.90;1.30;;;3.50;99.90;;;;;;4877531;29;20069;-82
2021/01/07 05:46:33;;;;;;;2.40;1.35;;;3.40;99.90;;;;;;4881574;29;20115;-82
2021/01/07 05:49:02;;;;;;;2.20;1.60;;;3.40;99.90;;;;;;4871519;29;20025;-82
2021/01/07 05:51:40;;;;;;;5.13;1.65;;;3.50;99.90;;;;;;4871804;29;20026;-81
2021/01/07 05:54:09;;;;;;;3.13;1.45;;;3.50;99.90;;;;;;4868247;29;20025;-82
2021/01/07 05:56:39;;;;;;;2.88;1.48;;;3.40;99.90;;;;;;4877317;29;20030;-82
2021/01/07 05:59:39;;;;;;;;;;;;;;;;;;;;;
2021/01/07 06:02:09;;;;;;;3.17;1.45;;;3.40;99.90;;;;;;4864766;29;20108;-82
2021/01/07 06:04:36;;;;;;;4.05;1.48;;;3.40;99.90;;;;;;4888501;29;20116;-81
2021/01/07 06:07:10;;;;;;;5.40;1.80;;;3.50;99.90;;;;;;4873284;29;20034;-81
2021/01/07 06:09:48;;;;;;;2.05;1.50;;;3.50;99.90;;;;;;4876501;29;20025;-82
2021/01/07 06:12:22;;;;;;;4.05;1.70;;;3.40;99.90;;;;;;4883033;29;20040;-81
2021/01/07 06:14:51;;;;;;;1.75;1.38;;;3.50;99.90;;;;;;4853128;29;20034;-81
2021/01/07 06:17:21;;;;;;;;;;;3.50;99.90;;;;;;4886176;29;20037;-80
2021/01/07 06:19:52;;;;;;;2.10;1.35;;;3.50;99.90;;;;;;4882427;29;19996;-82
2021/01/07 06:22:24;;;;;;;1.02;0.93;;;3.50;99.90;;;;;;4878373;29;20093;-82
2021/01/07 06:24:58;;;;;;;2.03;1.40;;;3.50;99.90;;;;;;4867843;29;20041;-82
2021/01/07 06:28:03;;;;;;;;;;;;;;;;;;;;;
2021/01/07 06:30:42;;;;;;;;;;;;;;;;;;;;;
2021/01/07 06:34:07;;;;;;;;;;;;;;;;;;;;;
2021/01/07 06:37:34;;;;;;;;;;;;;;;;;;;;;
2021/01/07 06:40:25;;;;;;;;;;;;;;;;;;;;;
2021/01/07 06:43:41;;;;;;;;;;;;;;;;;;;;;
2021/01/07 06:46:18;;;;;;;1.20;1.10;;;3.60;99.90;;;;;;4884314;29;20105;-82
2021/01/07 06:52:24;;;;;;;;;;;;;;;;;;;;;
2021/01/07 06:55:14;;;;;;;;;;;;;;;;;;;;;
2021/01/07 06:58:11;;;;;;;;;;;;;;;;;;;;;
2021/01/07 07:01:29;;;;;;;;;;;;;;;;;;;;;
2021/01/07 07:04:33;;;;;;;3.47;1.60;;;3.50;99.90;;;;;;4870529;29;20085;-83
2021/01/07 07:07:18;;;;;;;3.45;1.92;;;3.50;99.90;;;;;;4851687;29;20482;-82
2021/01/07 07:10:20;;;;;;;;;;;;;;;;;;;;;
2021/01/07 07:13:22;;;;;;;5.50;2.33;;;3.50;99.90;;;;;;4859289;29;20116;-82
2021/01/07 07:16:33;;;;;;;;;;;;;;;;;;;;;
2021/01/07 07:22:16;;;;;;;;;;;;;;;;;;;;;
2021/01/07 07:25:04;;;;;;;1.95;1.60;;;3.50;99.90;;;;;;4852332;29;20092;-82
2021/01/07 07:28:24;;;;;;;;;;;;;;;;;;;;;
2021/01/07 07:31:32;;;;;;;;;;;;;;;;;;;;;
2021/01/07 07:34:48;;;;;;;;;;;;;;;;;;;;;
2021/01/07 07:38:11;;;;;;;;;;;;;;;;;;;;;
2021/01/07 07:41:11;;;;;;;;;;;;;;;;;;;;;
2021/01/07 07:43:59;;;;;;;7.13;2.38;;;3.60;99.90;;;;;;4856984;29;20491;-80
2021/01/07 07:46:36;;;;;;;;;;;;;;;;;;;;;
2021/01/07 07:49:05;;;;;;;;;;;3.60;99.90;;;;;;4863944;29;20036;-80
2021/01/07 07:51:34;;;;;;;4.57;1.90;;;3.50;99.90;;;;;;4839928;29;20373;-79
2021/01/07 07:54:06;;;;;;;;;;;3.50;99.90;;;;;;4857388;29;20547;-82
2021/01/07 07:56:35;;;;;;;3.72;2.00;;;3.50;99.90;;;;;;4845742;29;20011;-80
2021/01/07 07:59:05;;;;;;;5.80;2.83;;;3.50;99.90;;;;;;4839728;29;20044;-79
2021/01/07 08:02:00;;;;;;;;;;;;;;;;;;;;;
2021/01/07 08:04:28;;;;;;;4.40;2.60;;;3.70;99.90;;;;;;4860611;29;20055;-82
2021/01/07 08:06:56;;;;;;;4.53;2.88;;;3.80;99.90;;;;;;4848567;29;20482;-79
2021/01/07 08:09:25;;;;;;;;;;;3.80;99.90;;;;;;4849251;29;20034;-81
2021/01/07 08:12:26;;;;;;;;;;;;;;;;;;;;;
2021/01/07 08:18:41;;;;;;;;;;;;;;;;;;;;;
2021/01/07 08:21:08;;;;;;;4.38;2.45;;;3.90;99.90;;;;;;4864755;29;20035;-79
2021/01/07 08:23:35;;;;;;;4.05;2.63;;;3.80;99.90;;;;;;4858964;29;20077;-79
2021/01/07 08:26:24;;;;;;;11.40;3.10;;;3.70;99.90;;;;;;4851959;29;20041;-81
2021/01/07 08:28:55;;;;;;;8.90;2.80;;;3.80;99.90;;;;;;4844406;29;20053;-80
2021/01/07 08:31:41;;;;;;;4.25;2.45;;;3.90;99.90;;;;;;4848703;29;20081;-78
2021/01/07 08:34:11;;;;;;;8.48;2.97;;;3.80;99.90;;;;;;4849960;29;20434;-77
2021/01/07 08:36:46;;;;;;;9.23;3.55;;;3.80;99.90;;;;;;4847887;29;20029;-81
2021/01/07 08:39:24;;;;;;;6.85;2.00;;;3.80;99.90;;;;;;4859345;29;20034;-80
2021/01/07 08:42:20;;;;;;;;;;;;;;;;;;;;;
2021/01/07 08:45:08;;;;;;;;;;;;;;;;;;;;;
2021/01/07 08:47:40;;;;;;;3.47;1.23;;;3.90;99.90;;;;;;4865142;29;20109;-79
2021/01/07 08:50:10;;;;;;;2.80;1.58;;;4.00;99.90;;;;;;4865778;29;20025;-81
2021/01/07 08:52:59;;;;;;;7.05;1.98;;;4.00;99.90;;;;;;4856851;29;20175;-82
2021/01/07 08:56:06;;;;;;;6.70;1.98;;;4.00;99.90;;;;;;4859921;29;20036;-79
2021/01/07 08:58:32;;;;;;;4.13;1.77;;;4.00;99.90;;;;;;4850314;29;20049;-82
2021/01/07 09:00:58;;;;;;;3.25;1.65;;;4.00;99.90;;;;;;4847917;29;20033;-80
2021/01/07 09:03:36;;;;;;;5.32;2.10;;;4.00;99.90;;;;;;4849715;29;20021;-80
2021/01/07 09:06:07;;;;;;;2.97;1.52;;;4.10;99.90;;;;;;4868911;29;20429;-80
2021/01/07 09:08:32;;;;;;;4.47;1.42;;;4.10;99.90;;;;;;4861029;29;20034;-80
2021/01/07 09:11:08;;;;;;;6.32;1.65;;;4.10;99.90;;;;;;4847201;29;20090;-79
2021/01/07 09:13:36;;;;;;;2.10;1.90;;;4.00;99.90;;;;;;4862388;29;20110;-80
2021/01/07 09:16:16;;;;;;;3.08;1.25;;;4.00;99.90;;;;;;4844590;29;20028;-80
2021/01/07 09:18:42;;;;;;;2.80;1.38;;;4.00;99.90;;;;;;4862038;29;20037;-79
2021/01/07 09:21:26;;;;;;;3.75;1.80;;;4.00;99.90;;;;;;4851199;29;20021;-80
2021/01/07 09:23:56;;;;;;;4.07;1.52;;;4.00;99.90;;;;;;4855964;29;20056;-84
2021/01/07 09:26:32;;;;;;;5.22;1.70;;;3.90;99.90;;;;;;4862151;29;20372;-80
2021/01/07 09:28:59;;;;;;;5.38;1.38;;;3.90;99.90;;;;;;4865747;29;20381;-80
2021/01/07 09:31:25;;;;;;;1.67;1.52;;;3.90;99.90;;;;;;4861770;29;20044;-80
2021/01/07 09:33:51;;;;;;;1.70;1.45;;;3.80;99.90;;;;;;4863012;29;20447;-82
2021/01/07 09:36:18;;;;;;;3.25;1.52;;;3.80;99.90;;;;;;4847732;29;20124;-82
2021/01/07 09:38:46;;;;;;;4.28;1.60;;;3.80;99.90;;;;;;4847380;29;20045;-82
2021/01/07 09:41:15;;;;;;;3.92;1.58;;;4.00;99.90;;;;;;4862208;29;20034;-83
2021/01/07 09:43:41;;;;;;;3.22;1.60;;;4.00;99.90;;;;;;4850702;29;20038;-82
2021/01/07 09:46:07;;;;;;;1.98;1.40;;;3.90;99.90;;;;;;4858271;29;20178;-83
2021/01/07 09:48:35;;;;;;;3.78;1.58;;;3.90;99.90;;;;;;4863630;29;20036;-83
2021/01/07 09:51:28;;;;;;;;;;;;;;;;;;;;;
2021/01/07 09:53:54;;;;;;;2.67;1.58;;;4.10;99.90;;;;;;4854190;29;20037;-82
2021/01/07 09:56:20;;;;;;;4.20;1.58;;;4.00;99.90;;;;;;4873710;29;20133;-82
2021/01/07 09:58:46;;;;;;;5.80;1.48;;;3.90;99.90;;;;;;4861442;29;20025;-82
2021/01/07 10:01:12;;;;;;;2.75;1.75;;;3.90;99.90;;;;;;4863859;29;20044;-83
2021/01/07 10:03:37;;;;;;;5.97;1.98;;;4.00;99.90;;;;;;4867171;29;20082;-81
2021/01/07 10:06:05;;;;;;;6.65;1.90;;;3.90;99.90;;;;;;4861088;29;20022;-82
2021/01/07 10:08:32;;;;;;;2.90;1.73;;;3.90;99.90;;;;;;4861189;29;20039;-81
2021/01/07 10:10:57;;;;;;;3.30;2.28;;;3.90;99.90;;;;;;4876685;29;20394;-81
2021/01/07 10:13:23;;;;;;;15.00;1.98;;;4.00;99.90;;;;;;4861511;29;20033;-81
2021/01/07 10:15:49;;;;;;;3.42;1.65;;;3.90;99.90;;;;;;4861451;29;20029;-82
2021/01/07 10:18:15;;;;;;;4.78;1.63;;;3.90;99.90;;;;;;4864700;29;20032;-80
2021/01/07 10:20:40;;;;;;;2.80;1.70;;;3.90;99.90;;;;;;4865337;29;20550;-82
2021/01/07 10:23:09;;;;;;;2.80;1.85;;;4.00;99.90;;;;;;4855860;29;20033;-80
2021/01/07 10:25:36;;;;;;;4.03;1.63;;;4.00;99.90;;;;;;4860712;29;20037;-81
2021/01/07 10:28:02;;;;;;;1.73;1.60;;;3.90;99.90;;;;;;4861335;29;20045;-81
2021/01/07 10:30:31;;;;;;;3.20;1.52;;;3.90;99.90;;;;;;4860745;29;20036;-81
2021/01/07 10:33:03;;;;;;;3.50;2.10;;;3.90;99.90;;;;;;4861438;29;20089;-81
2021/01/07 10:35:29;;;;;;;4.22;2.00;;;4.00;99.90;;;;;;4871625;29;20037;-82
2021/01/07 10:38:30;;;;;;;;;;;;;;;;;;;;;
2021/01/07 10:41:08;;;;;;;;;;;;;;;;;;;;;
2021/01/07 10:44:09;;;;;;;2.38;2.17;;;4.10;99.90;;;;;;4875450;29;20064;-87
2021/01/07 10:46:51;;;;;;;7.75;2.05;;;4.30;99.90;;;;;;4875706;29;20063;-86
2021/01/07 10:49:31;;;;;;;4.72;2.40;;;4.40;99.90;;;;;;4874726;29;20034;-85
2021/01/07 10:52:15;;;;;;;7.20;2.40;;;4.40;99.90;;;;;;4871298;29;20037;-86
2021/01/07 10:54:52;;;;;;;7.75;2.20;;;4.50;99.90;;;;;;4877351;29;20034;-83
2021/01/07 10:57:42;;;;;;;6.57;2.60;;;4.50;99.90;;;;;;4870642;29;20067;-83
2021/01/07 11:00:11;;;;;;;9.18;2.72;;;4.50;99.90;;;;;;4880618;29;20036;-85
2021/01/07 11:02:43;;;;;;;9.00;1.95;;;4.50;99.90;;;;;;4879333;29;20581;-84
2021/01/07 11:05:25;;;;;;;3.90;1.70;;;4.60;99.90;;;;;;4861124;29;20472;-84
2021/01/07 11:08:28;;;;;;;5.88;1.75;;;4.60;99.90;;;;;;4855603;29;20483;-82
2021/01/07 11:10:59;;;;;;;8.48;2.05;;;4.70;99.90;;;;;;4883985;29;20048;-82
2021/01/07 11:13:57;;;;;;;5.55;2.03;;;4.70;99.90;;;;;;4873023;29;20093;-84
2021/01/07 11:16:30;;;;;;;3.58;1.52;;;4.70;99.90;;;;;;4859745;29;20049;-83
2021/01/07 11:18:59;;;;;;;6.65;2.72;;;4.80;99.90;;;;;;4869838;29;20077;-86
2021/01/07 11:21:29;;;;;;;9.35;1.60;;;4.80;99.90;;;;;;4871699;29;20029;-85
2021/01/07 11:23:57;;;;;;;7.57;1.80;;;4.90;99.90;;;;;;4870868;29;20046;-84
2021/01/07 11:26:27;;;;;;;9.23;3.55;;;4.90;99.90;;;;;;4872664;29;20467;-85
2021/01/07 11:29:03;;;;;;;;;;;;;;;;;;;;;
2021/01/07 11:31:30;;;;;;;2.20;1.02;;;5.10;99.90;;;;;;4876195;29;20498;-85
2021/01/07 11:33:59;;;;;;;5.53;1.20;;;5.20;99.90;;;;;;4875286;29;20024;-87
2021/01/07 11:36:31;;;;;;;3.33;1.35;;;5.30;99.90;;;;;;4871917;29;20058;-86
2021/01/07 11:39:02;;;;;;;6.80;1.45;;;5.30;99.90;;;;;;4875967;29;20041;-87
2021/01/07 11:41:52;;;;;;;4.45;1.88;;;5.20;99.90;;;;;;4876203;29;20045;-85
2021/01/07 11:44:34;;;;;;;4.93;1.33;;;5.20;99.90;;;;;;4874770;29;20045;-86
2021/01/07 11:47:07;;;;;;;2.33;1.08;;;5.10;99.90;;;;;;4866544;29;20037;-86
2021/01/07 11:49:40;;;;;;;5.15;1.50;;;5.00;99.90;;;;;;4877560;29;20026;-87
2021/01/07 11:52:08;;;;;;;2.83;1.10;;;5.10;99.90;;;;;;4877233;29;20048;-82
2021/01/07 11:54:38;;;;;;;7.43;2.20;;;5.20;99.90;;;;;;4863126;29;20036;-82
2021/01/07 11:57:27;;;;;;;;;;;;;;;;;;;;;
2021/01/07 12:00:49;;;;;;;;;;;;;;;;;;;;;
2021/01/07 12:04:08;;;;;;;;;;;;;;;;;;;;;
2021/01/07 12:14:36;;;;;;;;;;;;;;;;;;;;;
2021/01/07 12:17:52;;;;;;;;;;;;;;;;;;;;;
2021/01/07 12:20:28;;;;;;;7.65;0.93;;;5.60;99.90;;;;;;4852634;29;20064;-84
2021/01/07 12:22:58;;;;;;;5.35;1.05;;;5.60;99.90;;;;;;4872369;29;20109;-80
2021/01/07 12:25:25;;;;;;;5.57;1.35;;;5.70;99.90;;;;;;4852755;29;20025;-79
2021/01/07 12:34:49;;;;;;;16.67;1.33;;;5.80;99.90;;;;;;4858509;29;20030;-84
2021/01/07 12:37:22;;;;;;;5.70;1.23;;;5.80;99.90;;;;;;4849135;29;20053;-83
2021/01/07 12:40:09;;;;;;;21.13;1.90;;;5.70;99.90;;;;;;4836407;29;20037;-83
2021/01/07 12:43:02;;;;;;;2.05;0.93;;;5.80;99.90;;;;;;4854152;29;20090;-82
2021/01/07 12:45:29;;;;;;;5.18;1.50;;;5.60;99.90;;;;;;4872882;29;20131;-80
2021/01/07 12:47:55;;;;;;;5.85;1.42;;;5.60;99.90;;;;;;4865430;29;20029;-82
2021/01/07 12:50:25;;;;;;;10.45;1.40;;;5.50;99.90;;;;;;4867628;29;20112;-82
2021/01/07 12:52:51;;;;;;;3.30;1.13;;;5.40;99.90;;;;;;4874746;29;20070;-81
2021/01/07 12:55:17;;;;;;;8.73;1.75;;;5.40;99.90;;;;;;4874355;29;20033;-82
2021/01/07 12:58:02;;;;;;;6.90;1.65;;;5.40;99.90;;;;;;4884717;29;20040;-83
2021/01/07 13:00:41;;;;;;;16.05;1.88;;;5.40;99.90;;;;;;4870407;29;20037;-84
2021/01/07 13:03:13;;;;;;;16.27;2.08;;;5.40;99.90;;;;;;4874079;29;20366;-83
2021/01/07 13:05:50;;;;;;;5.53;1.90;;;5.30;99.90;;;;;;4877079;29;20123;-83
2021/01/07 13:08:18;;;;;;;10.65;2.03;;;5.20;99.90;;;;;;4887346;29;20052;-82
2021/01/07 13:10:47;;;;;;;8.25;1.08;;;5.20;99.90;;;;;;4862949;29;20030;-77
2021/01/07 13:13:15;;;;;;;13.23;1.23;;;5.20;99.90;;;;;;4858018;29;20034;-79
2021/01/07 13:15:43;;;;;;;6.72;1.75;;;5.20;99.90;;;;;;4863465;29;20447;-80
2021/01/07 13:18:10;;;;;;;13.05;1.63;;;5.10;99.90;;;;;;4864380;29;20041;-80
2021/01/07 13:20:39;;;;;;;15.18;1.90;;;5.10;99.90;;;;;;4862799;29;20101;-79
2021/01/07 13:23:06;;;;;;;4.47;1.15;;;5.00;99.90;;;;;;4866088;29;20034;-79
2021/01/07 13:25:33;;;;;;;2.50;0.98;;;5.00;99.90;;;;;;4859912;29;20475;-79
2021/01/07 13:28:01;;;;;;;1.85;1.05;;;4.90;99.90;;;;;;4863516;29;20030;-79
2021/01/07 13:30:28;;;;;;;;;;;4.90;99.90;;;;;;4870504;29;20694;-80
2021/01/07 13:32:58;;;;;;;4.65;1.20;;;4.80;99.90;;;;;;4862298;29;19916;-79
2021/01/07 13:35:35;;;;;;;2.63;1.02;;;4.80;99.90;;;;;;4860458;29;20038;-80
2021/01/07 13:38:02;;;;;;;5.93;1.05;;;4.80;99.90;;;;;;4858370;29;20538;-79
2021/01/07 13:40:28;;;;;;;6.22;1.52;;;4.80;99.90;;;;;;4862899;29;20474;-79
2021/01/07 13:43:00;;;;;;;8.82;1.17;;;4.80;99.90;;;;;;4861400;29;20520;-79
2021/01/07 13:45:28;;;;;;;4.65;1.40;;;4.80;99.90;;;;;;4861553;29;20042;-78
2021/01/07 13:47:54;;;;;;;0.80;0.80;;;4.60;99.90;;;;;;4868382;29;20037;-80
2021/01/07 13:50:27;;;;;;;4.00;0.90;;;4.50;99.90;;;;;;4866597;29;20028;-79
2021/01/07 13:53:03;;;;;;;7.38;1.30;;;4.50;99.90;;;;;;4867772;29;20510;-80
2021/01/07 13:55:31;;;;;;;4.10;1.20;;;4.50;99.90;;;;;;4863747;29;20106;-79
2021/01/07 13:57:57;;;;;;;4.32;1.02;;;4.50;99.90;;;;;;4864951;29;20040;-79
2021/01/07 14:00:23;;;;;;;7.75;1.15;;;4.30;99.90;;;;;;4873915;29;20053;-80
2021/01/07 14:02:49;;;;;;;7.63;1.55;;;4.10;99.90;;;;;;4859118;29;20068;-81
2021/01/07 14:05:15;;;;;;;5.82;1.27;;;4.10;99.90;;;;;;4878082;29;20130;-81
2021/01/07 14:08:16;;;;;;;;;;;;;;;;;;;;;
2021/01/07 14:10:43;;;;;;;2.15;1.20;;;4.10;99.90;;;;;;4865564;29;20113;-84
2021/01/07 14:13:11;;;;;;;3.13;1.27;;;4.10;99.90;;;;;;4864122;29;20542;-84
2021/01/07 14:15:38;;;;;;;;;;;4.20;99.90;;;;;;4867311;29;20161;-84
2021/01/07 14:18:05;;;;;;;6.25;1.75;;;4.20;99.90;;;;;;4866932;29;19912;-83
2021/01/07 14:20:31;;;;;;;3.17;1.65;;;4.30;99.90;;;;;;4880650;29;20041;-84
2021/01/07 14:22:58;;;;;;;4.65;1.52;;;4.20;99.90;;;;;;4864352;29;20041;-83
2021/01/07 14:25:31;;;;;;;4.25;1.75;;;4.30;99.90;;;;;;4860725;29;20045;-84
2021/01/07 14:28:20;;;;;;;3.75;2.00;;;4.40;99.90;;;;;;4862152;29;20042;-83
2021/01/07 14:30:46;;;;;;;9.98;1.80;;;4.40;99.90;;;;;;4865992;29;20069;-83
2021/01/07 14:33:14;;;;;;;4.90;2.50;;;4.50;99.90;;;;;;4866479;29;20384;-84
2021/01/07 14:35:41;;;;;;;5.35;1.25;;;4.60;99.90;;;;;;4865873;29;20038;-84
2021/01/07 14:38:11;;;;;;;9.60;2.03;;;4.60;99.90;;;;;;4877394;29;20038;-82